sensor_id;sensor_type;location;lat;lon;timestamp;P1;P2;P0
78316;PMS7003;67572;50.930;18.276;2023-08-17T00:15:50;27.67;27.67;23.67
78316;PMS7003;67572;50.930;18.276;2023-08-17T00:18:54;29.67;29.67;23.67
78316;PMS7003;67572;50.930;18.276;2023-08-17T00:21:57;30.00;30.00;27.00
78316;PMS7003;67572;50.930;18.276;2023-08-17T00:25:01;30.00;28.67;24.33
78316;PMS7003;67572;50.930;18.276;2023-08-17T00:28:06;35.00;32.00;26.67
78316;PMS7003;67572;50.930;18.276;2023-08-17T00:31:11;41.67;39.00;28.67
78316;PMS7003;67572;50.930;18.276;2023-08-17T00:34:14;38.67;37.00;28.33
78316;PMS7003;67572;50.930;18.276;2023-08-17T00:37:18;49.00;44.33;30.00
78316;PMS7003;67572;50.930;18.276;2023-08-17T00:40:22;33.00;33.00;29.00
78316;PMS7003;67572;50.930;18.276;2023-08-17T00:43:25;37.00;35.33;27.33
78316;PMS7003;67572;50.930;18.276;2023-08-17T00:46:31;46.33;43.33;32.00
78316;PMS7003;67572;50.930;18.276;2023-08-17T00:49:35;54.00;45.00;30.67
78316;PMS7003;67572;50.930;18.276;2023-08-17T00:52:39;45.00;42.00;32.00
78316;PMS7003;67572;50.930;18.276;2023-08-17T00:55:43;39.00;39.00;29.00
78316;PMS7003;67572;50.930;18.276;2023-08-17T00:58:48;43.33;41.67;31.00
78316;PMS7003;67572;50.930;18.276;2023-08-17T05:05:09;21.50;19.00;17.75
78316;PMS7003;67572;50.930;18.276;2023-08-17T05:08:14;28.00;28.00;23.67
78316;PMS7003;67572;50.930;18.276;2023-08-17T05:11:18;16.00;15.00;13.25
78316;PMS7003;67572;50.930;18.276;2023-08-17T05:14:23;17.25;17.25;14.00
78316;PMS7003;67572;50.930;18.276;2023-08-17T05:17:27;18.00;18.00;16.50
78316;PMS7003;67572;50.930;18.276;2023-08-17T05:20:33;15.00;15.00;13.00
78316;PMS7003;67572;50.930;18.276;2023-08-17T05:23:36;13.00;11.75;10.75
78316;PMS7003;67572;50.930;18.276;2023-08-17T05:27:06;11.25;11.25;10.75
78316;PMS7003;67572;50.930;18.276;2023-08-17T05:30:19;8.25;8.25;8.00
78316;PMS7003;67572;50.930;18.276;2023-08-17T05:33:35;12.00;12.00;11.75
78316;PMS7003;67572;50.930;18.276;2023-08-17T05:36:42;11.00;11.00;10.75
78316;PMS7003;67572;50.930;18.276;2023-08-17T05:39:50;13.50;11.75;11.25
78316;PMS7003;67572;50.930;18.276;2023-08-17T05:44:42;12.00;8.75;7.50
78316;PMS7003;67572;50.930;18.276;2023-08-17T05:47:55;12.75;11.25;8.50
78316;PMS7003;67572;50.930;18.276;2023-08-17T05:52:03;12.50;12.50;11.00
78316;PMS7003;67572;50.930;18.276;2023-08-17T05:55:07;16.25;13.50;11.00
78316;PMS7003;67572;50.930;18.276;2023-08-17T05:58:11;10.50;10.50;10.00
78316;PMS7003;67572;50.930;18.276;2023-08-17T06:01:15;7.75;7.75;7.50
78316;PMS7003;67572;50.930;18.276;2023-08-17T06:04:38;11.00;11.00;9.75
78316;PMS7003;67572;50.930;18.276;2023-08-17T06:07:53;11.75;11.75;11.25
78316;PMS7003;67572;50.930;18.276;2023-08-17T06:14:28;11.75;11.25;11.00
78316;PMS7003;67572;50.930;18.276;2023-08-17T06:17:32;12.50;12.50;12.25
78316;PMS7003;67572;50.930;18.276;2023-08-17T06:36:30;12.00;12.00;11.50
78316;PMS7003;67572;50.930;18.276;2023-08-17T06:44:11;11.50;11.50;11.50
78316;PMS7003;67572;50.930;18.276;2023-08-17T06:47:15;9.00;9.00;9.00
78316;PMS7003;67572;50.930;18.276;2023-08-17T06:50:18;11.00;11.00;9.50
78316;PMS7003;67572;50.930;18.276;2023-08-17T07:02:07;11.75;11.75;9.00
78316;PMS7003;67572;50.930;18.276;2023-08-17T07:13:40;12.80;12.00;11.00
78316;PMS7003;67572;50.930;18.276;2023-08-17T07:20:49;10.60;10.60;10.20
78316;PMS7003;67572;50.930;18.276;2023-08-17T07:36:11;6.40;6.40;6.00
78316;PMS7003;67572;50.930;18.276;2023-08-17T07:39:14;13.20;12.20;10.80
78316;PMS7003;67572;50.930;18.276;2023-08-17T07:42:22;16.00;16.00;13.00
78316;PMS7003;67572;50.930;18.276;2023-08-17T07:49:39;12.80;12.80;12.20
78316;PMS7003;67572;50.930;18.276;2023-08-17T07:52:52;14.40;13.00;12.00
78316;PMS7003;67572;50.930;18.276;2023-08-17T08:19:47;15.60;15.60;13.80
78316;PMS7003;67572;50.930;18.276;2023-08-17T08:22:52;13.40;13.40;11.80
78316;PMS7003;67572;50.930;18.276;2023-08-17T08:25:56;17.00;17.00;13.80
78316;PMS7003;67572;50.930;18.276;2023-08-17T08:32:52;13.60;13.00;12.40
78316;PMS7003;67572;50.930;18.276;2023-08-17T08:36:01;12.80;12.80;11.80
78316;PMS7003;67572;50.930;18.276;2023-08-17T08:39:04;15.20;13.60;11.80
78316;PMS7003;67572;50.930;18.276;2023-08-17T08:42:09;17.40;17.20;14.00
78316;PMS7003;67572;50.930;18.276;2023-08-17T08:45:14;18.40;18.40;16.60
78316;PMS7003;67572;50.930;18.276;2023-08-17T08:48:19;15.60;15.60;14.20
78316;PMS7003;67572;50.930;18.276;2023-08-17T08:51:29;16.60;14.40;14.00
78316;PMS7003;67572;50.930;18.276;2023-08-17T08:54:39;16.80;16.80;16.20
78316;PMS7003;67572;50.930;18.276;2023-08-17T08:57:50;18.20;18.20;15.20
78316;PMS7003;67572;50.930;18.276;2023-08-17T09:00:56;14.80;14.80;14.00
78316;PMS7003;67572;50.930;18.276;2023-08-17T09:04:04;17.60;17.60;16.20
78316;PMS7003;67572;50.930;18.276;2023-08-17T09:07:09;17.60;17.60;15.40
78316;PMS7003;67572;50.930;18.276;2023-08-17T09:10:15;18.20;16.60;15.20
78316;PMS7003;67572;50.930;18.276;2023-08-17T09:13:19;18.60;18.60;15.00
78316;PMS7003;67572;50.930;18.276;2023-08-17T09:16:23;18.80;18.80;16.00
78316;PMS7003;67572;50.930;18.276;2023-08-17T09:19:26;19.80;18.40;15.00
78316;PMS7003;67572;50.930;18.276;2023-08-17T09:22:38;19.00;19.00;15.00
78316;PMS7003;67572;50.930;18.276;2023-08-17T09:25:44;18.60;18.60;15.20
78316;PMS7003;67572;50.930;18.276;2023-08-17T09:28:48;20.00;19.00;17.60
78316;PMS7003;67572;50.930;18.276;2023-08-17T09:31:52;16.80;16.80;15.40
78316;PMS7003;67572;50.930;18.276;2023-08-17T09:34:56;18.20;18.20;15.80
78316;PMS7003;67572;50.930;18.276;2023-08-17T09:38:01;23.80;21.20;18.60
78316;PMS7003;67572;50.930;18.276;2023-08-17T09:41:10;24.00;21.00;17.60
78316;PMS7003;67572;50.930;18.276;2023-08-17T09:44:16;20.40;20.40;18.20
78316;PMS7003;67572;50.930;18.276;2023-08-17T09:47:20;24.60;24.60;20.40
78316;PMS7003;67572;50.930;18.276;2023-08-17T10:06:09;20.40;20.40;18.00
78316;PMS7003;67572;50.930;18.276;2023-08-17T10:29:23;19.00;18.00;17.00
78316;PMS7003;67572;50.930;18.276;2023-08-17T10:32:37;20.60;20.60;17.80
78316;PMS7003;67572;50.930;18.276;2023-08-17T10:43:12;18.00;18.00;16.40
78316;PMS7003;67572;50.930;18.276;2023-08-17T10:46:16;19.60;19.60;17.80
78316;PMS7003;67572;50.930;18.276;2023-08-17T10:49:25;18.40;18.40;16.20
78316;PMS7003;67572;50.930;18.276;2023-08-17T10:52:30;11.60;11.20;9.80
78316;PMS7003;67572;50.930;18.276;2023-08-17T10:55:35;19.40;19.40;17.40
78316;PMS7003;67572;50.930;18.276;2023-08-17T10:58:43;12.60;12.60;12.00
78316;PMS7003;67572;50.930;18.276;2023-08-17T11:01:47;16.80;16.80;16.00
78316;PMS7003;67572;50.930;18.276;2023-08-17T11:04:54;16.60;16.60;14.40
78316;PMS7003;67572;50.930;18.276;2023-08-17T11:07:59;16.80;16.80;15.40
78316;PMS7003;67572;50.930;18.276;2023-08-17T11:11:04;14.80;14.80;14.20
78316;PMS7003;67572;50.930;18.276;2023-08-17T11:14:09;16.20;16.00;14.60
78316;PMS7003;67572;50.930;18.276;2023-08-17T11:17:13;14.80;14.80;13.20
78316;PMS7003;67572;50.930;18.276;2023-08-17T11:20:17;13.60;13.60;13.00
78316;PMS7003;67572;50.930;18.276;2023-08-17T11:23:22;18.00;18.00;14.40
78316;PMS7003;67572;50.930;18.276;2023-08-17T11:26:27;17.80;16.60;16.00
78316;PMS7003;67572;50.930;18.276;2023-08-17T11:29:37;15.40;15.00;14.00
78316;PMS7003;67572;50.930;18.276;2023-08-17T11:32:45;14.60;14.60;14.20
78316;PMS7003;67572;50.930;18.276;2023-08-17T11:35:54;15.60;14.20;13.40
78316;PMS7003;67572;50.930;18.276;2023-08-17T11:39:07;18.60;18.60;17.20
78316;PMS7003;67572;50.930;18.276;2023-08-17T11:42:11;15.40;15.40;14.60
78316;PMS7003;67572;50.930;18.276;2023-08-17T11:45:22;14.80;14.80;12.60
78316;PMS7003;67572;50.930;18.276;2023-08-17T11:48:29;17.00;17.00;16.00
78316;PMS7003;67572;50.930;18.276;2023-08-17T11:51:36;17.80;17.80;16.80
78316;PMS7003;67572;50.930;18.276;2023-08-17T11:54:44;16.60;16.60;16.00
78316;PMS7003;67572;50.930;18.276;2023-08-17T11:57:53;17.60;17.20;17.00
78316;PMS7003;67572;50.930;18.276;2023-08-17T12:00:58;16.00;16.00;14.80
78316;PMS7003;67572;50.930;18.276;2023-08-17T12:04:02;16.60;16.60;14.80
78316;PMS7003;67572;50.930;18.276;2023-08-17T12:07:07;14.80;14.80;13.00
78316;PMS7003;67572;50.930;18.276;2023-08-17T12:10:11;18.60;18.60;17.00
78316;PMS7003;67572;50.930;18.276;2023-08-17T12:13:14;13.40;13.40;11.80
78316;PMS7003;67572;50.930;18.276;2023-08-17T12:16:20;12.60;12.60;12.00
78316;PMS7003;67572;50.930;18.276;2023-08-17T12:19:25;17.00;17.00;16.00
78316;PMS7003;67572;50.930;18.276;2023-08-17T12:22:28;16.00;16.00;13.80
78316;PMS7003;67572;50.930;18.276;2023-08-17T12:25:32;16.40;16.40;13.40
78316;PMS7003;67572;50.930;18.276;2023-08-17T12:28:36;17.00;17.00;13.20
78316;PMS7003;67572;50.930;18.276;2023-08-17T12:31:44;17.00;17.00;15.60
78316;PMS7003;67572;50.930;18.276;2023-08-17T12:34:48;13.20;13.20;12.20
78316;PMS7003;67572;50.930;18.276;2023-08-17T12:37:51;17.80;16.00;13.20
78316;PMS7003;67572;50.930;18.276;2023-08-17T12:40:55;13.00;12.40;11.60
78316;PMS7003;67572;50.930;18.276;2023-08-17T12:43:58;12.00;12.00;11.60
78316;PMS7003;67572;50.930;18.276;2023-08-17T12:47:04;14.20;14.20;13.00
78316;PMS7003;67572;50.930;18.276;2023-08-17T12:50:08;12.00;12.00;11.80
78316;PMS7003;67572;50.930;18.276;2023-08-17T12:53:12;15.80;13.80;12.80
78316;PMS7003;67572;50.930;18.276;2023-08-17T12:56:15;13.00;13.00;12.00
78316;PMS7003;67572;50.930;18.276;2023-08-17T12:59:19;13.60;11.60;11.00
78316;PMS7003;67572;50.930;18.276;2023-08-17T13:02:24;12.20;12.20;10.80
78316;PMS7003;67572;50.930;18.276;2023-08-17T13:05:28;11.80;11.80;11.60
78316;PMS7003;67572;50.930;18.276;2023-08-17T13:08:31;14.00;12.80;12.20
78316;PMS7003;67572;50.930;18.276;2023-08-17T13:11:35;10.40;10.40;10.00
78316;PMS7003;67572;50.930;18.276;2023-08-17T13:14:38;15.40;15.20;15.00
78316;PMS7003;67572;50.930;18.276;2023-08-17T13:17:43;16.80;15.40;13.00
78316;PMS7003;67572;50.930;18.276;2023-08-17T13:20:47;12.40;12.40;11.00
78316;PMS7003;67572;50.930;18.276;2023-08-17T13:23:50;12.20;12.20;11.80
78316;PMS7003;67572;50.930;18.276;2023-08-17T13:26:54;11.80;11.80;11.40
78316;PMS7003;67572;50.930;18.276;2023-08-17T13:29:59;12.50;12.50;12.00
78316;PMS7003;67572;50.930;18.276;2023-08-17T13:34:51;7.20;7.20;7.20
78316;PMS7003;67572;50.930;18.276;2023-08-17T13:37:54;3.60;3.60;3.60
78316;PMS7003;67572;50.930;18.276;2023-08-17T13:40:59;6.20;6.20;5.00
78316;PMS7003;67572;50.930;18.276;2023-08-17T13:44:03;6.00;4.00;4.00
78316;PMS7003;67572;50.930;18.276;2023-08-17T13:47:07;3.00;3.00;3.00
78316;PMS7003;67572;50.930;18.276;2023-08-17T13:50:12;3.60;3.60;3.60
78316;PMS7003;67572;50.930;18.276;2023-08-17T13:53:17;4.80;4.80;4.80
78316;PMS7003;67572;50.930;18.276;2023-08-17T13:56:21;5.40;5.40;5.40
78316;PMS7003;67572;50.930;18.276;2023-08-17T13:59:24;5.00;5.00;5.00
78316;PMS7003;67572;50.930;18.276;2023-08-17T14:02:27;2.60;2.60;2.20
78316;PMS7003;67572;50.930;18.276;2023-08-17T14:05:34;3.60;2.00;2.00
78316;PMS7003;67572;50.930;18.276;2023-08-17T14:08:37;2.40;2.40;2.40
78316;PMS7003;67572;50.930;18.276;2023-08-17T14:11:41;3.00;3.00;2.00
78316;PMS7003;67572;50.930;18.276;2023-08-17T14:14:44;3.20;3.20;3.00
78316;PMS7003;67572;50.930;18.276;2023-08-17T14:17:48;4.00;4.00;3.60
78316;PMS7003;67572;50.930;18.276;2023-08-17T14:20:52;1.60;1.60;1.60
78316;PMS7003;67572;50.930;18.276;2023-08-17T14:23:56;2.00;2.00;2.00
78316;PMS7003;67572;50.930;18.276;2023-08-17T14:26:59;7.20;5.80;5.20
78316;PMS7003;67572;50.930;18.276;2023-08-17T14:30:03;5.80;5.40;5.00
78316;PMS7003;67572;50.930;18.276;2023-08-17T14:33:08;4.60;4.60;4.60
78316;PMS7003;67572;50.930;18.276;2023-08-17T14:36:13;4.00;4.00;4.00
78316;PMS7003;67572;50.930;18.276;2023-08-17T14:39:20;7.20;6.80;6.40
78316;PMS7003;67572;50.930;18.276;2023-08-17T14:42:24;5.00;5.00;4.00
78316;PMS7003;67572;50.930;18.276;2023-08-17T14:45:29;14.75;12.00;9.00
78316;PMS7003;67572;50.930;18.276;2023-08-17T14:48:32;19.75;18.50;17.50
78316;PMS7003;67572;50.930;18.276;2023-08-17T14:51:40;12.75;12.25;11.50
78316;PMS7003;67572;50.930;18.276;2023-08-17T14:54:46;6.50;6.50;6.00
78316;PMS7003;67572;50.930;18.276;2023-08-17T14:57:49;3.50;3.50;3.50
78316;PMS7003;67572;50.930;18.276;2023-08-17T15:00:53;4.75;4.75;4.75
78316;PMS7003;67572;50.930;18.276;2023-08-17T15:03:56;6.00;6.00;6.00
78316;PMS7003;67572;50.930;18.276;2023-08-17T15:07:01;5.00;5.00;5.00
78316;PMS7003;67572;50.930;18.276;2023-08-17T15:10:11;4.80;4.80;4.40
78316;PMS7003;67572;50.930;18.276;2023-08-17T15:13:14;4.00;4.00;2.50
78316;PMS7003;67572;50.930;18.276;2023-08-17T15:16:19;4.00;4.00;4.00
78316;PMS7003;67572;50.930;18.276;2023-08-17T15:19:27;6.25;6.25;5.75
78316;PMS7003;67572;50.930;18.276;2023-08-17T15:22:40;5.25;5.25;5.00
78316;PMS7003;67572;50.930;18.276;2023-08-17T15:25:44;5.75;5.75;5.25
78316;PMS7003;67572;50.930;18.276;2023-08-17T15:28:48;3.75;3.75;2.50
78316;PMS7003;67572;50.930;18.276;2023-08-17T15:31:53;6.80;6.20;6.20
78316;PMS7003;67572;50.930;18.276;2023-08-17T15:34:57;8.00;8.00;8.00
78316;PMS7003;67572;50.930;18.276;2023-08-17T15:38:02;9.00;7.00;6.50
78316;PMS7003;67572;50.930;18.276;2023-08-17T15:41:06;6.00;6.00;6.00
78316;PMS7003;67572;50.930;18.276;2023-08-17T15:44:09;5.75;5.75;5.25
78316;PMS7003;67572;50.930;18.276;2023-08-17T15:47:13;5.00;5.00;5.00
78316;PMS7003;67572;50.930;18.276;2023-08-17T15:50:17;5.00;5.00;4.40
78316;PMS7003;67572;50.930;18.276;2023-08-17T15:53:22;8.00;8.00;7.00
78316;PMS7003;67572;50.930;18.276;2023-08-17T15:56:25;9.00;8.00;7.50
78316;PMS7003;67572;50.930;18.276;2023-08-17T15:59:29;9.25;9.00;8.50
78316;PMS7003;67572;50.930;18.276;2023-08-17T16:02:33;11.75;11.75;9.00
78316;PMS7003;67572;50.930;18.276;2023-08-17T16:05:39;9.50;9.50;8.50
78316;PMS7003;67572;50.930;18.276;2023-08-17T16:08:44;7.50;7.50;7.00
78316;PMS7003;67572;50.930;18.276;2023-08-17T16:11:50;6.25;6.25;5.25
78316;PMS7003;67572;50.930;18.276;2023-08-17T16:14:54;9.00;9.00;7.75
78316;PMS7003;67572;50.930;18.276;2023-08-17T16:17:58;5.50;5.50;5.50
78316;PMS7003;67572;50.930;18.276;2023-08-17T16:21:02;5.25;5.25;5.25
78316;PMS7003;67572;50.930;18.276;2023-08-17T16:24:08;6.25;6.25;5.75
78316;PMS7003;67572;50.930;18.276;2023-08-17T16:27:11;5.50;5.00;5.00
78316;PMS7003;67572;50.930;18.276;2023-08-17T16:30:15;8.50;8.00;7.00
78316;PMS7003;67572;50.930;18.276;2023-08-17T16:33:19;7.75;7.25;7.00
78316;PMS7003;67572;50.930;18.276;2023-08-17T16:36:23;6.25;6.25;6.25
78316;PMS7003;67572;50.930;18.276;2023-08-17T16:39:28;7.25;7.25;7.00
78316;PMS7003;67572;50.930;18.276;2023-08-17T16:42:32;9.00;9.00;8.00
78316;PMS7003;67572;50.930;18.276;2023-08-17T16:45:36;7.00;5.00;5.00
78316;PMS7003;67572;50.930;18.276;2023-08-17T16:48:39;8.50;8.50;8.25
78316;PMS7003;67572;50.930;18.276;2023-08-17T16:51:43;7.25;7.25;7.00
78316;PMS7003;67572;50.930;18.276;2023-08-17T16:54:48;7.75;7.75;7.00
78316;PMS7003;67572;50.930;18.276;2023-08-17T16:57:52;7.50;7.50;7.50
78316;PMS7003;67572;50.930;18.276;2023-08-17T17:00:58;6.00;6.00;6.00
78316;PMS7003;67572;50.930;18.276;2023-08-17T17:04:02;11.50;10.00;9.25
78316;PMS7003;67572;50.930;18.276;2023-08-17T17:07:06;8.50;8.50;8.50
78316;PMS7003;67572;50.930;18.276;2023-08-17T17:10:11;8.00;8.00;8.00
78316;PMS7003;67572;50.930;18.276;2023-08-17T17:13:14;7.25;7.25;7.00
78316;PMS7003;67572;50.930;18.276;2023-08-17T17:16:18;6.25;6.00;5.00
78316;PMS7003;67572;50.930;18.276;2023-08-17T17:19:23;11.50;11.50;10.75
78316;PMS7003;67572;50.930;18.276;2023-08-17T17:22:26;6.50;6.50;6.50
78316;PMS7003;67572;50.930;18.276;2023-08-17T17:25:31;10.75;9.75;9.00
78316;PMS7003;67572;50.930;18.276;2023-08-17T17:28:36;7.50;7.50;6.00
78316;PMS7003;67572;50.930;18.276;2023-08-17T17:31:40;10.25;10.25;8.75
78316;PMS7003;67572;50.930;18.276;2023-08-17T17:34:43;8.75;8.00;7.75
78316;PMS7003;67572;50.930;18.276;2023-08-17T17:37:47;10.50;10.50;8.25
78316;PMS7003;67572;50.930;18.276;2023-08-17T17:40:52;11.50;10.00;8.75
78316;PMS7003;67572;50.930;18.276;2023-08-17T17:43:56;8.25;8.25;8.00
78316;PMS7003;67572;50.930;18.276;2023-08-17T17:47:00;16.50;14.75;13.50
78316;PMS7003;67572;50.930;18.276;2023-08-17T17:50:05;10.50;10.50;9.00
78316;PMS7003;67572;50.930;18.276;2023-08-17T17:53:13;10.25;9.00;9.00
78316;PMS7003;67572;50.930;18.276;2023-08-17T17:56:19;16.75;14.50;12.00
78316;PMS7003;67572;50.930;18.276;2023-08-17T17:59:40;14.25;11.25;8.50
78316;PMS7003;67572;50.930;18.276;2023-08-17T18:02:46;11.00;11.00;11.00
78316;PMS7003;67572;50.930;18.276;2023-08-17T18:05:50;11.00;11.00;11.00
78316;PMS7003;67572;50.930;18.276;2023-08-17T18:08:56;12.50;12.50;11.00
78316;PMS7003;67572;50.930;18.276;2023-08-17T18:12:02;8.00;8.00;8.00
78316;PMS7003;67572;50.930;18.276;2023-08-17T18:15:06;11.00;11.00;11.00
78316;PMS7003;67572;50.930;18.276;2023-08-17T18:18:09;8.00;8.00;7.00
78316;PMS7003;67572;50.930;18.276;2023-08-17T18:21:13;11.00;10.50;8.50
78316;PMS7003;67572;50.930;18.276;2023-08-17T18:24:17;14.00;11.75;10.50
78316;PMS7003;67572;50.930;18.276;2023-08-17T18:27:22;11.75;11.75;11.00
78316;PMS7003;67572;50.930;18.276;2023-08-17T18:30:26;9.25;8.00;7.00
78316;PMS7003;67572;50.930;18.276;2023-08-17T18:33:31;10.75;10.75;8.50
78316;PMS7003;67572;50.930;18.276;2023-08-17T18:36:35;12.50;10.25;10.00
78316;PMS7003;67572;50.930;18.276;2023-08-17T18:39:38;10.00;10.00;10.00
78316;PMS7003;67572;50.930;18.276;2023-08-17T18:42:43;8.00;8.00;8.00
78316;PMS7003;67572;50.930;18.276;2023-08-17T18:45:47;6.50;6.50;6.50
78316;PMS7003;67572;50.930;18.276;2023-08-17T18:48:51;10.75;10.75;10.00
78316;PMS7003;67572;50.930;18.276;2023-08-17T18:51:55;8.00;8.00;7.50
78316;PMS7003;67572;50.930;18.276;2023-08-17T18:54:59;8.75;8.75;8.75
78316;PMS7003;67572;50.930;18.276;2023-08-17T18:58:08;8.00;8.00;7.00
78316;PMS7003;67572;50.930;18.276;2023-08-17T19:01:13;4.75;4.75;4.50
78316;PMS7003;67572;50.930;18.276;2023-08-17T19:04:17;8.00;8.00;7.25
78316;PMS7003;67572;50.930;18.276;2023-08-17T19:07:23;10.00;8.00;7.75
78316;PMS7003;67572;50.930;18.276;2023-08-17T19:10:28;8.00;8.00;7.75
78316;PMS7003;67572;50.930;18.276;2023-08-17T19:13:33;11.00;10.00;8.00
78316;PMS7003;67572;50.930;18.276;2023-08-17T19:16:37;7.00;7.00;5.00
78316;PMS7003;67572;50.930;18.276;2023-08-17T19:19:40;11.25;11.25;9.25
78316;PMS7003;67572;50.930;18.276;2023-08-17T19:22:44;10.50;10.50;9.50
78316;PMS7003;67572;50.930;18.276;2023-08-17T19:25:48;5.00;5.00;5.00
78316;PMS7003;67572;50.930;18.276;2023-08-17T19:28:53;10.00;8.00;7.75
78316;PMS7003;67572;50.930;18.276;2023-08-17T19:31:56;7.67;7.67;7.00
78316;PMS7003;67572;50.930;18.276;2023-08-17T19:35:00;10.00;8.67;8.00
78316;PMS7003;67572;50.930;18.276;2023-08-17T19:38:05;10.25;9.50;9.00
78316;PMS7003;67572;50.930;18.276;2023-08-17T19:41:13;15.67;14.33;13.33
78316;PMS7003;67572;50.930;18.276;2023-08-17T19:44:20;15.33;13.67;13.33
78316;PMS7003;67572;50.930;18.276;2023-08-17T19:47:24;13.00;13.00;11.00
78316;PMS7003;67572;50.930;18.276;2023-08-17T19:50:28;11.00;8.67;8.00
78316;PMS7003;67572;50.930;18.276;2023-08-17T19:53:31;11.00;10.67;10.00
78316;PMS7003;67572;50.930;18.276;2023-08-17T19:56:35;14.00;13.00;11.00
78316;PMS7003;67572;50.930;18.276;2023-08-17T19:59:41;10.00;10.00;10.00
78316;PMS7003;67572;50.930;18.276;2023-08-17T20:02:45;11.67;11.00;10.33
78316;PMS7003;67572;50.930;18.276;2023-08-17T20:05:49;10.33;10.33;9.33
78316;PMS7003;67572;50.930;18.276;2023-08-17T20:08:52;9.33;9.33;9.33
78316;PMS7003;67572;50.930;18.276;2023-08-17T20:11:56;8.00;8.00;7.00
78316;PMS7003;67572;50.930;18.276;2023-08-17T20:15:01;9.50;9.00;7.50
78316;PMS7003;67572;50.930;18.276;2023-08-17T20:18:06;13.33;10.67;10.67
78316;PMS7003;67572;50.930;18.276;2023-08-17T20:21:10;9.33;9.33;8.67
78316;PMS7003;67572;50.930;18.276;2023-08-17T20:24:14;10.33;10.33;10.33
78316;PMS7003;67572;50.930;18.276;2023-08-17T20:27:17;13.00;11.00;10.00
78316;PMS7003;67572;50.930;18.276;2023-08-17T20:30:22;10.00;10.00;9.33
78316;PMS7003;67572;50.930;18.276;2023-08-17T20:33:26;12.67;11.00;10.00
78316;PMS7003;67572;50.930;18.276;2023-08-17T20:36:31;10.33;10.33;10.33
78316;PMS7003;67572;50.930;18.276;2023-08-17T20:39:35;8.50;8.50;8.50
78316;PMS7003;67572;50.930;18.276;2023-08-17T20:42:40;8.00;8.00;8.00
78316;PMS7003;67572;50.930;18.276;2023-08-17T20:45:45;10.33;10.33;10.33
78316;PMS7003;67572;50.930;18.276;2023-08-17T20:48:49;8.67;8.67;8.00
78316;PMS7003;67572;50.930;18.276;2023-08-17T20:51:53;12.33;12.33;10.67
78316;PMS7003;67572;50.930;18.276;2023-08-17T20:54:57;10.33;10.33;10.33
78316;PMS7003;67572;50.930;18.276;2023-08-17T20:58:01;8.00;8.00;7.33
78316;PMS7003;67572;50.930;18.276;2023-08-17T21:01:07;13.00;10.75;10.25
78316;PMS7003;67572;50.930;18.276;2023-08-17T21:04:11;13.00;13.00;10.00
78316;PMS7003;67572;50.930;18.276;2023-08-17T21:07:16;16.00;14.00;11.67
78316;PMS7003;67572;50.930;18.276;2023-08-17T21:10:20;7.67;7.67;7.00
78316;PMS7003;67572;50.930;18.276;2023-08-17T21:13:24;11.00;11.00;10.67
78316;PMS7003;67572;50.930;18.276;2023-08-17T21:16:29;15.00;11.00;11.00
78316;PMS7003;67572;50.930;18.276;2023-08-17T21:19:32;10.00;10.00;9.33
78316;PMS7003;67572;50.930;18.276;2023-08-17T21:22:37;14.00;10.33;10.33
78316;PMS7003;67572;50.930;18.276;2023-08-17T21:25:47;14.00;14.00;13.33
78316;PMS7003;67572;50.930;18.276;2023-08-17T21:28:51;12.67;12.33;12.33
78316;PMS7003;67572;50.930;18.276;2023-08-17T21:31:56;8.00;8.00;7.33
78316;PMS7003;67572;50.930;18.276;2023-08-17T21:35:00;17.00;17.00;15.67
78316;PMS7003;67572;50.930;18.276;2023-08-17T21:38:07;9.67;9.67;9.33
78316;PMS7003;67572;50.930;18.276;2023-08-17T21:41:12;13.67;13.67;13.00
78316;PMS7003;67572;50.930;18.276;2023-08-17T21:44:15;13.67;13.00;11.00
78316;PMS7003;67572;50.930;18.276;2023-08-17T21:47:20;13.33;13.33;13.00
78316;PMS7003;67572;50.930;18.276;2023-08-17T21:50:24;10.67;10.67;10.33
78316;PMS7003;67572;50.930;18.276;2023-08-17T21:53:28;11.00;11.00;11.00
78316;PMS7003;67572;50.930;18.276;2023-08-17T21:56:31;13.00;13.00;12.33
78316;PMS7003;67572;50.930;18.276;2023-08-17T21:59:35;14.00;14.00;13.00
78316;PMS7003;67572;50.930;18.276;2023-08-17T22:02:40;14.00;14.00;11.00
78316;PMS7003;67572;50.930;18.276;2023-08-17T22:05:44;10.25;9.75;7.75
78316;PMS7003;67572;50.930;18.276;2023-08-17T22:08:48;7.25;7.25;7.25
78316;PMS7003;67572;50.930;18.276;2023-08-17T22:11:52;8.00;8.00;7.00
78316;PMS7003;67572;50.930;18.276;2023-08-17T22:14:55;11.25;10.25;9.50
78316;PMS7003;67572;50.930;18.276;2023-08-17T22:18:00;13.75;13.75;12.75
78316;PMS7003;67572;50.930;18.276;2023-08-17T22:21:04;8.50;8.50;8.00
78316;PMS7003;67572;50.930;18.276;2023-08-17T22:24:08;10.50;8.50;7.50
78316;PMS7003;67572;50.930;18.276;2023-08-17T22:27:12;13.00;11.00;11.00
78316;PMS7003;67572;50.930;18.276;2023-08-17T22:30:16;9.50;9.50;7.75
78316;PMS7003;67572;50.930;18.276;2023-08-17T22:33:21;10.50;10.50;10.50
78316;PMS7003;67572;50.930;18.276;2023-08-17T22:36:25;11.50;10.00;9.00
78316;PMS7003;67572;50.930;18.276;2023-08-17T22:39:30;13.00;13.00;11.00
78316;PMS7003;67572;50.930;18.276;2023-08-17T22:42:34;10.75;10.25;8.00
78316;PMS7003;67572;50.930;18.276;2023-08-17T22:45:38;11.00;11.00;9.33
78316;PMS7003;67572;50.930;18.276;2023-08-17T22:48:43;11.00;11.00;11.00
78316;PMS7003;67572;50.930;18.276;2023-08-17T22:51:47;10.00;10.00;7.75
78316;PMS7003;67572;50.930;18.276;2023-08-17T22:54:51;14.50;14.50;12.25
78316;PMS7003;67572;50.930;18.276;2023-08-17T22:57:54;11.00;11.00;11.00
78316;PMS7003;67572;50.930;18.276;2023-08-17T23:00:58;11.00;11.00;10.00
78316;PMS7003;67572;50.930;18.276;2023-08-17T23:04:03;10.33;8.00;8.00
78316;PMS7003;67572;50.930;18.276;2023-08-17T23:07:08;12.00;11.00;10.00
78316;PMS7003;67572;50.930;18.276;2023-08-17T23:10:11;15.67;14.33;11.33
78316;PMS7003;67572;50.930;18.276;2023-08-17T23:13:15;12.50;12.50;12.25
78316;PMS7003;67572;50.930;18.276;2023-08-17T23:16:19;13.50;13.50;12.25
78316;PMS7003;67572;50.930;18.276;2023-08-17T23:19:24;12.67;12.67;10.33
78316;PMS7003;67572;50.930;18.276;2023-08-17T23:22:28;15.25;14.00;10.75
78316;PMS7003;67572;50.930;18.276;2023-08-17T23:25:32;10.75;10.75;10.75
78316;PMS7003;67572;50.930;18.276;2023-08-17T23:28:36;11.33;10.00;10.00
78316;PMS7003;67572;50.930;18.276;2023-08-17T23:31:40;12.00;12.00;11.00
78316;PMS7003;67572;50.930;18.276;2023-08-17T23:34:45;14.33;14.33;13.00
78316;PMS7003;67572;50.930;18.276;2023-08-17T23:37:52;16.33;16.33;12.33
78316;PMS7003;67572;50.930;18.276;2023-08-17T23:40:55;15.00;15.00;14.33
78316;PMS7003;67572;50.930;18.276;2023-08-17T23:44:00;11.67;11.67;9.33
78316;PMS7003;67572;50.930;18.276;2023-08-17T23:47:03;19.33;17.67;17.00
78316;PMS7003;67572;50.930;18.276;2023-08-17T23:50:09;17.00;17.00;14.00
78316;PMS7003;67572;50.930;18.276;2023-08-17T23:53:12;18.00;16.33;16.00
